createdAt,value
2018-10-11T00:01:56.313Z,8.46
2018-10-11T00:04:25.364Z,8.39
2018-10-11T00:06:54.553Z,8.35
2018-10-11T00:09:23.605Z,8.24
2018-10-11T00:11:52.652Z,8.16
2018-10-11T00:14:21.706Z,8.15
2018-10-11T00:16:50.741Z,8.21
2018-10-11T00:19:19.788Z,8.23
2018-10-11T00:21:48.837Z,8.29
2018-10-11T00:29:29.385Z,8.14
2018-10-11T00:32:00.394Z,8.03
2018-10-11T00:34:29.432Z,7.97
2018-10-11T00:42:09.977Z,8.10
2018-10-11T00:44:39.010Z,8.11
2018-10-11T00:47:08.062Z,8.13
2018-10-11T00:49:37.159Z,8.08
2018-10-11T00:52:06.173Z,8.10
2018-10-11T00:54:35.260Z,8.12
2018-10-11T00:57:05.217Z,8.08
2018-10-11T00:59:42.368Z,8.01
2018-10-11T01:02:11.790Z,8.01
2018-10-11T01:04:40.851Z,8.01
2018-10-11T01:07:09.892Z,7.97
2018-10-11T01:09:39.909Z,8.02
2018-10-11T01:12:09.001Z,7.94
2018-10-11T01:17:13.809Z,7.69
2018-10-11T01:22:18.553Z,7.63
2018-10-11T01:24:47.607Z,7.72
2018-10-11T01:27:16.698Z,7.67
2018-10-11T01:32:21.510Z,7.63
2018-10-11T01:37:27.261Z,7.41
2018-10-11T01:39:56.316Z,7.42
2018-10-11T01:45:01.125Z,7.39
2018-10-11T01:47:30.186Z,7.40
2018-10-11T01:49:59.270Z,7.48
2018-10-11T01:52:28.316Z,7.50
2018-10-11T01:54:57.376Z,7.52
2018-10-11T01:57:26.429Z,7.56
2018-10-11T02:02:31.692Z,7.57
2018-10-11T02:05:00.740Z,7.48
2018-10-11T02:07:29.781Z,7.49
2018-10-11T02:14:09.243Z,7.33
2018-10-11T02:16:40.289Z,7.32
2018-10-11T02:19:09.337Z,7.30
2018-10-11T02:21:38.393Z,7.31
2018-10-11T02:24:07.487Z,7.35
2018-10-11T02:26:36.562Z,7.24
2018-10-11T02:29:05.605Z,7.22
2018-10-11T02:31:34.666Z,7.36
2018-10-11T02:36:40.401Z,7.14
2018-10-11T02:39:09.437Z,7.03
2018-10-11T02:44:14.253Z,6.97
2018-10-11T02:49:19.151Z,6.99
2018-10-11T02:51:50.234Z,6.91
2018-10-11T02:54:21.232Z,6.86
2018-10-11T02:56:50.294Z,6.83
2018-10-11T02:59:19.365Z,6.86
2018-10-11T03:01:48.428Z,6.83
2018-10-11T03:06:54.215Z,6.94
2018-10-11T03:09:23.263Z,6.95
2018-10-11T03:11:52.309Z,6.93
2018-10-11T03:14:21.358Z,7.03
2018-10-11T03:16:50.409Z,7.01
2018-10-11T03:19:19.450Z,6.93
2018-10-11T03:21:48.496Z,6.90
2018-10-11T03:26:53.297Z,7.00
2018-10-11T03:29:22.353Z,7.03
2018-10-11T03:31:51.395Z,6.98
2018-10-11T03:34:20.445Z,6.92
2018-10-11T03:36:50.480Z,6.84
2018-10-11T03:39:19.504Z,6.81
2018-10-11T03:41:50.512Z,6.77
2018-10-11T03:44:19.573Z,6.78
2018-10-11T03:46:50.556Z,6.83
2018-10-11T03:49:19.607Z,6.78
2018-10-11T03:54:24.351Z,6.68
2018-10-11T03:56:53.421Z,6.64
2018-10-11T03:59:22.474Z,6.59
2018-10-11T04:01:51.517Z,6.52
2018-10-11T04:04:20.901Z,6.54
2018-10-11T04:09:26.741Z,6.54
2018-10-11T04:14:31.473Z,6.54
2018-10-11T04:19:37.193Z,6.53
2018-10-11T04:22:06.269Z,6.47
2018-10-11T04:24:37.235Z,6.46
2018-10-11T04:27:06.277Z,6.60
2018-10-11T04:29:35.345Z,6.51
2018-10-11T04:32:04.373Z,6.46
2018-10-11T04:34:33.622Z,6.45
2018-10-11T04:37:02.652Z,6.41
2018-10-11T04:39:31.701Z,6.44
2018-10-11T04:42:00.877Z,6.34
2018-10-11T04:44:29.955Z,6.34
2018-10-11T04:47:00.052Z,6.34
2018-10-11T04:49:29.253Z,6.38
2018-10-11T04:51:59.293Z,6.40
2018-10-11T04:54:28.342Z,6.38
2018-10-11T04:56:57.397Z,6.28
2018-10-11T04:59:28.608Z,6.32
2018-10-11T05:01:57.670Z,6.32
2018-10-11T05:04:26.719Z,6.32
2018-10-11T05:09:35.161Z,6.45
2018-10-11T05:12:05.181Z,6.42
2018-10-11T05:14:34.284Z,6.42
2018-10-11T05:17:04.310Z,6.39
2018-10-11T05:19:33.351Z,6.41
2018-10-11T05:24:39.105Z,6.45
2018-10-11T05:27:09.088Z,6.44
2018-10-11T05:29:38.146Z,6.48
2018-10-11T05:32:07.256Z,6.55
2018-10-11T05:34:36.263Z,6.60
2018-10-11T05:37:05.307Z,6.39
2018-10-11T05:39:34.340Z,6.36
2018-10-11T05:42:03.390Z,6.59
2018-10-11T05:44:32.595Z,6.50
2018-10-11T05:47:01.516Z,6.45
2018-10-11T05:49:32.595Z,6.39
2018-10-11T05:52:01.651Z,6.42
2018-10-11T05:54:32.713Z,6.50
2018-10-11T05:57:13.657Z,6.55
2018-10-11T05:59:54.795Z,6.61
2018-10-11T06:02:35.458Z,6.71
2018-10-11T06:05:15.877Z,6.79
2018-10-11T06:07:45.847Z,6.87
2018-10-11T06:12:55.110Z,7.16
2018-10-11T06:15:24.153Z,7.27
2018-10-11T06:20:32.699Z,7.54
2018-10-11T06:23:06.022Z,7.62
2018-10-11T06:25:35.055Z,7.69
2018-10-11T06:28:07.393Z,7.64
2018-10-11T06:33:12.279Z,7.82
2018-10-11T06:35:42.310Z,7.85
2018-10-11T06:38:12.299Z,7.93
2018-10-11T06:40:41.348Z,8.04
2018-10-11T06:45:47.232Z,8.42
2018-10-11T06:48:16.295Z,8.60
2018-10-11T06:50:45.345Z,8.80
2018-10-11T06:53:14.528Z,8.87
2018-10-11T06:55:44.492Z,9.00
2018-10-11T06:58:22.224Z,9.16
2018-10-11T07:00:52.347Z,9.31
2018-10-11T07:03:22.341Z,9.47
2018-10-11T07:05:51.380Z,9.63
2018-10-11T07:08:22.400Z,9.83
2018-10-11T07:10:51.457Z,10.02
2018-10-11T07:15:56.276Z,10.50
2018-10-11T07:18:26.570Z,10.74
2018-10-11T07:20:55.653Z,10.96
2018-10-11T07:23:24.837Z,11.23
2018-10-11T07:25:54.219Z,11.50
2018-10-11T07:28:23.225Z,11.77
2018-10-11T07:30:52.364Z,11.93
2018-10-11T07:33:21.421Z,12.22
2018-10-11T07:35:50.470Z,12.48
2018-10-11T07:38:24.060Z,12.83
2018-10-11T07:40:53.151Z,13.00
2018-10-11T07:46:00.897Z,13.40
2018-10-11T07:48:30.948Z,13.64
2018-10-11T07:50:59.989Z,14.36
2018-10-11T07:53:29.160Z,14.75
2018-10-11T07:55:58.215Z,15.05
2018-10-11T07:58:27.284Z,15.13
2018-10-11T08:00:56.389Z,15.20
2018-10-11T08:03:28.671Z,15.32
2018-10-11T08:05:57.812Z,15.56
2018-10-11T08:08:26.888Z,16.21
2018-10-11T08:10:57.041Z,16.61
2018-10-11T08:16:02.830Z,17.43
2018-10-11T08:18:32.046Z,17.86
2018-10-11T08:21:01.085Z,18.24
2018-10-11T08:26:06.197Z,18.84
2018-10-11T08:28:36.869Z,19.05
2018-10-11T08:33:46.204Z,19.51
2018-10-11T08:36:17.250Z,19.75
2018-10-11T08:38:46.339Z,20.01
2018-10-11T08:41:16.361Z,20.22
2018-10-11T08:43:49.280Z,20.70
2018-10-11T08:46:18.294Z,21.85
2018-10-11T08:48:47.358Z,23.28
2018-10-11T08:51:17.397Z,24.20
2018-10-11T08:53:47.424Z,24.10
2018-10-11T08:56:17.418Z,24.64
2018-10-11T08:58:46.501Z,26.24
2018-10-11T09:01:15.525Z,27.09
2018-10-11T09:03:49.931Z,28.39
2018-10-11T09:06:18.982Z,28.82
2018-10-11T09:08:48.031Z,28.55
2018-10-11T09:13:52.938Z,30.32
2018-10-11T09:16:21.984Z,29.12
2018-10-11T09:18:51.049Z,28.24
2018-10-11T09:23:55.905Z,28.66
2018-10-11T09:29:01.797Z,32.78
2018-10-11T09:31:30.847Z,31.19
2018-10-11T09:36:35.794Z,32.98
2018-10-11T09:39:04.707Z,30.24
2018-10-11T09:41:33.856Z,31.93
2018-10-11T09:44:02.892Z,32.07
2018-10-11T09:46:32.929Z,35.06
2018-10-11T09:49:05.282Z,32.83
2018-10-11T09:51:36.303Z,31.27
2018-10-11T09:54:05.367Z,33.30
2018-10-11T09:56:34.406Z,32.49
2018-10-11T09:59:03.469Z,33.19
2018-10-11T10:01:45.211Z,31.12
2018-10-11T10:04:14.315Z,31.14
2018-10-11T10:06:46.545Z,31.62
2018-10-11T10:09:16.566Z,32.12
2018-10-11T10:11:45.633Z,31.60
2018-10-11T10:16:50.372Z,32.79
2018-10-11T10:19:19.495Z,32.88
2018-10-11T10:21:48.513Z,31.20
2018-10-11T10:24:17.896Z,32.70
2018-10-11T10:29:22.320Z,33.43
2018-10-11T10:31:51.370Z,33.12
2018-10-11T10:34:23.954Z,33.95
2018-10-11T10:36:53.037Z,32.50
2018-10-11T10:39:22.119Z,31.85
2018-10-11T10:41:51.162Z,32.61
2018-10-11T10:44:20.233Z,30.98
2018-10-11T10:46:49.294Z,30.85
2018-10-11T10:49:18.343Z,31.81
2018-10-11T10:51:47.415Z,30.98
2018-10-11T10:54:16.495Z,31.71
2018-10-11T10:56:45.544Z,30.90
2018-10-11T10:59:14.608Z,30.99
2018-10-11T11:01:43.683Z,31.34
2018-10-11T11:06:48.443Z,36.52
2018-10-11T11:09:17.581Z,33.37
2018-10-11T11:11:46.633Z,34.16
2018-10-11T11:14:15.720Z,34.14
2018-10-11T11:16:58.450Z,37.57
2018-10-11T11:19:27.513Z,32.66
2018-10-11T11:22:01.702Z,32.99
2018-10-11T11:24:30.785Z,33.22
2018-10-11T11:27:00.813Z,33.95
2018-10-11T11:29:29.869Z,34.86
2018-10-11T11:32:02.086Z,35.80
2018-10-11T11:34:31.145Z,35.26
2018-10-11T11:37:03.802Z,33.87
2018-10-11T11:39:33.811Z,33.84
2018-10-11T11:42:02.854Z,36.69
2018-10-11T11:44:31.893Z,35.06
2018-10-11T11:47:00.991Z,33.41
2018-10-11T11:49:30.932Z,33.54
2018-10-11T11:52:00.987Z,36.10
2018-10-11T11:54:30.034Z,35.23
2018-10-11T11:57:02.405Z,34.11
2018-10-11T11:59:31.453Z,37.70
2018-10-11T12:02:00.526Z,39.59
2018-10-11T12:04:29.573Z,34.41
2018-10-11T12:06:58.622Z,35.62
2018-10-11T12:09:31.892Z,36.66
2018-10-11T12:12:01.011Z,39.98
2018-10-11T12:14:30.041Z,42.55
2018-10-11T12:19:34.796Z,37.96
2018-10-11T12:24:39.552Z,37.27
2018-10-11T12:29:44.291Z,40.85
2018-10-11T12:34:49.053Z,40.68
2018-10-11T12:37:18.119Z,39.76
2018-10-11T12:39:48.076Z,40.19
2018-10-11T12:42:17.170Z,42.21
2018-10-11T12:44:46.197Z,39.28
2018-10-11T12:47:15.259Z,38.82
2018-10-11T12:49:47.449Z,42.33
2018-10-11T12:52:17.613Z,36.41
2018-10-11T12:54:46.666Z,40.57
2018-10-11T12:57:29.211Z,41.93
2018-10-11T12:59:58.519Z,44.12
2018-10-11T13:02:27.573Z,45.38
2018-10-11T13:04:56.633Z,38.83
2018-10-11T13:10:01.415Z,44.13
2018-10-11T13:12:30.495Z,44.52
2018-10-11T13:15:01.507Z,44.90
2018-10-11T13:17:35.283Z,45.83
2018-10-11T13:19:59.614Z,44.58
2018-10-11T13:22:28.665Z,39.44
2018-10-11T13:24:57.714Z,42.12
2018-10-11T13:30:05.454Z,43.29
2018-10-11T13:32:47.507Z,43.99
2018-10-11T13:35:16.660Z,42.67
2018-10-11T13:40:21.360Z,43.02
2018-10-11T13:42:52.301Z,42.12
2018-10-11T13:45:23.364Z,42.86
2018-10-11T13:47:52.457Z,43.68
2018-10-11T13:50:21.521Z,42.80
2018-10-11T13:52:51.602Z,43.42
2018-10-11T13:55:28.054Z,43.11
2018-10-11T13:57:57.069Z,42.83
2018-10-11T14:00:26.123Z,42.34
2018-10-11T14:02:56.153Z,42.71
2018-10-11T14:05:25.249Z,43.38
2018-10-11T14:07:54.341Z,43.14
2018-10-11T14:10:23.483Z,42.52
2018-10-11T14:12:52.770Z,41.41
2018-10-11T14:15:21.829Z,41.21
2018-10-11T14:17:51.901Z,37.70
2018-10-11T14:20:20.941Z,36.92
2018-10-11T14:22:53.966Z,36.87
2018-10-11T14:25:23.057Z,35.47
2018-10-11T14:27:52.229Z,36.39
2018-10-11T14:30:21.370Z,37.27
2018-10-11T14:32:50.507Z,38.70
2018-10-11T14:35:21.519Z,37.51
2018-10-11T14:37:50.570Z,38.69
2018-10-11T14:40:23.188Z,39.60
2018-10-11T14:42:52.240Z,34.61
2018-10-11T14:45:21.280Z,30.95
2018-10-11T14:47:50.345Z,29.17
2018-10-11T14:50:19.394Z,28.48
2018-10-11T14:52:53.706Z,27.92
2018-10-11T15:00:34.373Z,26.58
2018-10-11T15:03:03.471Z,26.97
2018-10-11T15:08:08.301Z,26.38
2018-10-11T15:10:38.267Z,25.79
2018-10-11T15:13:07.325Z,25.57
2018-10-11T15:15:36.374Z,25.69
2018-10-11T15:18:05.437Z,26.08
2018-10-11T15:20:35.580Z,26.19
2018-10-11T15:23:06.545Z,26.59
2018-10-11T15:25:35.585Z,26.75
2018-10-11T15:28:04.645Z,26.17
2018-10-11T15:30:33.720Z,26.17
2018-10-11T15:38:14.289Z,24.97
2018-10-11T15:40:47.216Z,24.67
2018-10-11T15:43:16.265Z,24.42
2018-10-11T15:45:45.334Z,24.43
2018-10-11T15:48:14.458Z,23.92
2018-10-11T15:50:43.508Z,23.90
2018-10-11T15:53:12.552Z,23.61
2018-10-11T15:55:41.715Z,23.66
2018-10-11T15:58:10.788Z,23.31
2018-10-11T16:00:39.868Z,23.15
2018-10-11T16:03:08.916Z,22.98
2018-10-11T16:08:14.719Z,22.55
2018-10-11T16:10:43.775Z,22.42
2018-10-11T16:13:12.839Z,22.10
2018-10-11T16:15:41.886Z,21.51
2018-10-11T16:18:14.481Z,21.43
2018-10-11T16:20:43.584Z,21.39
2018-10-11T16:23:12.625Z,21.28
2018-10-11T16:25:42.686Z,21.17
2018-10-11T16:30:53.903Z,21.21
2018-10-11T16:33:22.969Z,20.97
2018-10-11T16:35:52.022Z,20.89
2018-10-11T16:38:21.097Z,20.89
2018-10-11T16:40:52.070Z,20.92
2018-10-11T16:43:23.067Z,20.76
2018-10-11T16:45:52.114Z,20.68
2018-10-11T16:48:22.097Z,20.60
2018-10-11T16:50:51.158Z,20.73
2018-10-11T16:53:20.229Z,20.57
2018-10-11T16:55:49.309Z,20.44
2018-10-11T16:58:18.367Z,20.56
2018-10-11T17:00:47.415Z,20.46
2018-10-11T17:05:52.271Z,20.38
2018-10-11T17:10:57.147Z,20.06
2018-10-11T17:13:26.195Z,19.92
2018-10-11T17:15:55.254Z,19.94
2018-10-11T17:18:24.298Z,19.91
2018-10-11T17:20:54.307Z,20.02
2018-10-11T17:23:23.365Z,19.64
2018-10-11T17:25:52.421Z,19.51
2018-10-11T17:28:21.488Z,19.29
2018-10-11T17:30:50.554Z,19.16
2018-10-11T17:33:19.615Z,19.10
2018-10-11T17:35:49.596Z,19.19
2018-10-11T17:38:18.665Z,19.00
2018-10-11T17:40:48.737Z,18.94
2018-10-11T17:43:17.906Z,18.75
2018-10-11T17:45:46.967Z,18.73
2018-10-11T17:48:16.037Z,18.93
2018-10-11T17:50:45.098Z,18.54
2018-10-11T17:53:15.161Z,18.43
2018-10-11T17:55:44.214Z,18.19
2018-10-11T17:58:15.209Z,18.21
2018-10-11T18:00:44.265Z,18.24
2018-10-11T18:03:14.372Z,18.23
2018-10-11T18:05:43.389Z,18.44
2018-10-11T18:08:12.455Z,18.33
2018-10-11T18:10:41.523Z,18.03
2018-10-11T18:15:46.306Z,17.56
2018-10-11T18:18:15.361Z,17.60
2018-10-11T18:20:44.428Z,17.61
2018-10-11T18:23:13.485Z,17.58
2018-10-11T18:25:42.586Z,17.55
2018-10-11T18:28:12.585Z,17.46
2018-10-11T18:30:41.631Z,17.35
2018-10-11T18:35:47.492Z,17.61
2018-10-11T18:38:16.494Z,17.51
2018-10-11T18:40:46.572Z,17.49
2018-10-11T18:43:15.621Z,17.47
2018-10-11T18:45:44.689Z,17.26
2018-10-11T18:48:13.756Z,17.29
2018-10-11T18:50:44.821Z,17.35
2018-10-11T18:53:14.205Z,17.39
2018-10-11T18:55:43.281Z,17.37
2018-10-11T19:00:48.119Z,17.45
2018-10-11T19:03:17.181Z,17.45
2018-10-11T19:08:21.976Z,17.36
2018-10-11T19:13:27.794Z,17.09
2018-10-11T19:15:57.822Z,17.03
2018-10-11T19:21:03.613Z,16.91
2018-10-11T19:23:32.670Z,16.81
2018-10-11T19:26:01.730Z,16.62
2018-10-11T19:28:30.790Z,16.66
2018-10-11T19:30:59.915Z,16.64
2018-10-11T19:33:28.881Z,16.58
2018-10-11T19:35:57.940Z,16.75
2018-10-11T19:38:27.037Z,16.67
2018-10-11T19:40:56.134Z,16.67
2018-10-11T19:43:25.212Z,16.73
2018-10-11T19:45:55.309Z,16.75
2018-10-11T19:48:24.407Z,16.71
2018-10-11T19:50:53.462Z,16.62
2018-10-11T19:55:58.653Z,16.46
2018-10-11T19:58:27.766Z,16.53
2018-10-11T20:00:56.946Z,16.72
2018-10-11T20:03:25.996Z,16.79
2018-10-11T20:05:55.156Z,16.73
2018-10-11T20:08:24.454Z,16.65
2018-10-11T20:10:53.981Z,16.68
2018-10-11T20:15:59.215Z,17.08
2018-10-11T20:18:28.940Z,16.86
2018-10-11T20:20:58.614Z,16.42
2018-10-11T20:23:27.877Z,16.24
2018-10-11T20:25:58.052Z,16.12
2018-10-11T20:28:28.129Z,15.98
2018-10-11T20:30:57.804Z,15.90
2018-10-11T20:33:27.306Z,15.99
2018-10-11T20:35:57.742Z,16.15
2018-10-11T20:38:27.558Z,16.28
2018-10-11T20:40:56.966Z,16.37
2018-10-11T20:43:26.592Z,16.31
2018-10-11T20:45:56.094Z,16.32
2018-10-11T20:48:25.548Z,16.39
2018-10-11T20:50:55.069Z,16.44
2018-10-11T20:58:36.937Z,16.75
2018-10-11T21:01:06.447Z,16.94
2018-10-11T21:03:35.528Z,16.80
2018-10-11T21:06:04.606Z,16.76
2018-10-11T21:08:33.657Z,16.82
2018-10-11T21:11:02.772Z,16.74
2018-10-11T21:13:31.841Z,16.65
2018-10-11T21:16:00.873Z,16.64
2018-10-11T21:21:05.697Z,16.61
2018-10-11T21:23:36.745Z,16.77
2018-10-11T21:26:05.834Z,16.71
2018-10-11T21:28:34.869Z,16.66
2018-10-11T21:31:03.932Z,16.67
2018-10-11T21:33:33.104Z,16.70
2018-10-11T21:36:02.166Z,16.49
2018-10-11T21:41:06.994Z,16.53
2018-10-11T21:43:40.241Z,16.55
2018-10-11T21:46:09.309Z,16.41
2018-10-11T21:48:39.310Z,16.20
2018-10-11T21:51:08.505Z,16.26
2018-10-11T21:53:37.554Z,16.13
2018-10-11T21:56:06.618Z,16.02
2018-10-11T21:58:35.923Z,15.93
2018-10-11T22:01:04.994Z,15.95
2018-10-11T22:03:34.057Z,15.95
2018-10-11T22:06:03.551Z,16.09
2018-10-11T22:13:44.161Z,16.25
2018-10-11T22:16:13.234Z,16.13
2018-10-11T22:18:42.312Z,16.02
2018-10-11T22:21:11.355Z,15.98
2018-10-11T22:23:40.417Z,15.85
2018-10-11T22:26:09.481Z,15.80
2018-10-11T22:28:38.528Z,16.01
2018-10-11T22:31:08.610Z,15.73
2018-10-11T22:33:37.701Z,15.78
2018-10-11T22:36:06.768Z,16.02
2018-10-11T22:38:35.813Z,16.10
2018-10-11T22:41:04.901Z,16.05
2018-10-11T22:43:33.976Z,16.00
2018-10-11T22:51:14.703Z,15.92
2018-10-11T22:53:43.744Z,15.66
2018-10-11T22:58:48.656Z,15.83
2018-10-11T23:03:54.478Z,15.52
2018-10-11T23:06:23.530Z,15.18
2018-10-11T23:08:52.611Z,15.02
2018-10-11T23:11:22.604Z,14.75
2018-10-11T23:13:51.701Z,14.71
2018-10-11T23:16:21.653Z,14.60
2018-10-11T23:18:50.713Z,14.57
2018-10-11T23:21:19.787Z,14.70
2018-10-11T23:23:50.756Z,14.69
2018-10-11T23:26:19.824Z,14.50
2018-10-11T23:28:48.870Z,14.27
2018-10-11T23:33:53.642Z,14.28
2018-10-11T23:36:22.684Z,14.11
2018-10-11T23:38:51.747Z,14.04
2018-10-11T23:43:59.014Z,14.00
2018-10-11T23:46:28.223Z,13.74
2018-10-11T23:48:57.281Z,13.73
2018-10-11T23:51:26.348Z,13.80
2018-10-11T23:53:55.407Z,13.67
2018-10-11T23:56:24.505Z,13.55
2018-10-11T23:58:53.545Z,13.52
